Time;durP1;ratioP1;P1;durP2;ratioP2;P2;SDS_P1;SDS_P2;PMS_P1;PMS_P2;Temp;Humidity;BMP_temperature;BMP_pressure;BME280_temperature;BME280_humidity;BME280_pressure;Samples;Min_cycle;Max_cycle;Signal;HPM_P1;HPM_P2
2023/01/12 00:00:52;;;;;;;21.35;5.07;;;7.60;99.90;;;;;;5031123;28;20132;-53
2023/01/12 00:03:18;;;;;;;19.70;4.45;;;7.60;99.90;;;;;;5038755;28;20049;-52
2023/01/12 00:05:43;;;;;;;26.05;4.38;;;8.00;99.90;;;;;;5008545;28;20046;-52
2023/01/12 00:08:09;;;;;;;17.73;3.78;;;7.10;99.90;;;;;;5039037;28;20166;-54
2023/01/12 00:10:34;;;;;;;17.52;3.42;;;7.30;99.90;;;;;;5040283;28;20660;-48
2023/01/12 00:13:00;;;;;;;18.77;4.18;;;7.60;99.90;;;;;;5036039;28;20079;-52
2023/01/12 00:16:33;;;;;;;20.13;4.80;;;7.50;99.90;;;;;;5033688;28;20033;-53
2023/01/12 00:18:23;;;;;;;15.48;4.05;;;7.30;99.90;;;;;;5033844;28;20045;-50
2023/01/12 00:20:49;;;;;;;27.75;6.63;;;7.90;99.90;;;;;;5043377;28;20037;-51
2023/01/12 00:23:14;;;;;;;25.17;5.80;;;7.20;99.90;;;;;;5038423;28;20057;-54
2023/01/12 00:25:48;;;;;;;20.25;5.80;;;7.30;99.90;;;;;;5041629;28;20037;-51
2023/01/12 00:28:14;;;;;;;25.58;4.40;;;7.50;99.90;;;;;;5028773;28;20056;-52
2023/01/12 00:30:43;;;;;;;22.35;5.13;;;7.30;99.90;;;;;;5036241;28;20045;-52
2023/01/12 00:33:13;;;;;;;16.23;4.32;;;7.40;99.90;;;;;;5036116;28;20059;-56
2023/01/12 00:35:39;;;;;;;26.95;5.85;;;6.90;99.90;;;;;;5040091;28;20037;-50
2023/01/12 00:38:05;;;;;;;24.83;5.75;;;7.50;99.90;;;;;;5036349;28;20040;-51
2023/01/12 00:40:35;;;;;;;31.13;6.20;;;6.90;99.90;;;;;;5021110;28;20052;-55
2023/01/12 00:45:50;;;;;;;22.05;4.22;;;7.70;99.90;;;;;;5037370;28;20056;-51
2023/01/12 00:48:16;;;;;;;19.65;5.53;;;7.30;99.90;;;;;;5033135;28;20121;-55
2023/01/12 00:50:45;;;;;;;32.63;5.72;;;;;;;;;;5015123;28;20120;-53
2023/01/12 00:53:14;;;;;;;25.52;4.97;;;7.10;99.90;;;;;;5044102;28;20040;-52
2023/01/12 00:55:39;;;;;;;23.80;4.60;;;7.30;99.90;;;;;;5034939;28;20030;-52
2023/01/12 00:58:05;;;;;;;17.80;4.25;;;7.20;99.90;;;;;;5040976;28;20505;-55
2023/01/12 01:00:33;;;;;;;18.75;4.65;;;7.40;99.90;;;;;;5012369;28;20057;-52
2023/01/12 01:02:59;;;;;;;24.00;3.75;;;7.90;99.90;;;;;;5039343;28;20041;-55
2023/01/12 01:05:24;;;;;;;16.27;4.22;;;7.80;99.90;;;;;;5037237;28;20048;-52
2023/01/12 01:07:50;;;;;;;24.67;4.55;;;7.50;99.90;;;;;;5035706;28;20037;-52
2023/01/12 01:10:16;;;;;;;25.25;6.43;;;7.40;99.90;;;;;;5034856;28;20049;-54
2023/01/12 01:12:45;;;;;;;19.58;6.15;;;7.00;99.90;;;;;;5030733;28;20048;-54
2023/01/12 01:15:10;;;;;;;18.00;4.60;;;7.60;99.90;;;;;;5028880;28;20096;-52
2023/01/12 01:17:36;;;;;;;23.20;4.88;;;7.40;99.90;;;;;;5037346;28;20033;-51
2023/01/12 01:20:03;;;;;;;22.80;3.63;;;;;;;;;;5033449;28;20134;-52
2023/01/12 01:22:29;;;;;;;19.13;5.22;;;7.80;99.90;;;;;;5016145;28;20124;-54
2023/01/12 01:24:54;;;;;;;24.52;5.93;;;7.50;99.90;;;;;;5033580;28;20124;-53
2023/01/12 01:27:20;;;;;;;26.88;6.97;;;7.60;99.90;;;;;;5017531;28;20037;-51
2023/01/12 01:29:46;;;;;;;24.00;5.60;;;7.10;99.90;;;;;;5031296;28;20037;-52
2023/01/12 01:32:11;;;;;;;20.25;5.22;;;8.00;99.90;;;;;;5033656;28;20034;-52
2023/01/12 01:34:40;;;;;;;23.98;5.07;;;7.70;99.90;;;;;;5039743;28;20450;-53
2023/01/12 01:37:05;;;;;;;20.65;5.32;;;8.00;99.90;;;;;;5032740;28;20116;-53
2023/01/12 01:39:31;;;;;;;20.13;4.35;;;7.40;99.90;;;;;;5038797;28;20041;-50
2023/01/12 01:41:57;;;;;;;20.05;5.00;;;7.40;99.90;;;;;;5038977;28;20033;-52
2023/01/12 01:44:28;;;;;;;24.23;4.45;;;8.00;99.90;;;;;;5030889;28;20041;-51
2023/01/12 01:47:22;;;;;;;23.13;5.00;;;8.30;99.90;;;;;;5038004;28;20461;-53
2023/01/12 01:49:54;;;;;;;15.23;4.05;;;7.50;99.90;;;;;;5034143;28;20049;-52
2023/01/12 01:52:26;;;;;;;24.02;5.35;;;7.90;99.90;;;;;;5037119;28;20037;-52
2023/01/12 01:54:58;;;;;;;26.35;6.63;;;7.40;99.90;;;;;;5024034;28;20039;-51
2023/01/12 01:57:30;;;;;;;31.33;5.65;;;7.90;99.90;;;;;;5035838;28;20041;-51
2023/01/12 01:59:58;;;;;;;22.75;6.00;;;7.70;99.90;;;;;;5040050;28;20029;-50
2023/01/12 02:02:25;;;;;;;24.25;5.18;;;8.50;99.90;;;;;;5035426;28;20050;-55
2023/01/12 02:04:52;;;;;;;30.83;6.35;;;7.80;99.90;;;;;;5038109;28;20464;-52
2023/01/12 02:07:18;;;;;;;21.63;4.80;;;7.90;99.90;;;;;;5032423;28;20041;-53
2023/01/12 02:09:44;;;;;;;33.97;5.85;;;8.10;99.90;;;;;;5038605;28;20049;-55
2023/01/12 02:17:56;;;;;;;23.52;6.85;;;7.80;99.90;;;;;;5034282;28;20041;-52
2023/01/12 02:20:36;;;;;;;30.70;6.45;;;7.60;99.90;;;;;;5022249;28;20045;-53
2023/01/12 02:23:25;;;;;;;24.73;4.88;;;8.30;99.90;;;;;;5036024;28;20580;-54
2023/01/12 02:26:00;;;;;;;20.40;5.28;;;7.90;99.90;;;;;;5039632;28;20236;-55
2023/01/12 02:28:53;;;;;;;28.75;7.20;;;7.90;99.90;;;;;;5034313;28;20041;-55
2023/01/12 02:31:31;;;;;;;27.58;6.30;;;8.00;99.90;;;;;;5027132;28;20045;-52
2023/01/12 02:34:15;;;;;;;38.10;7.85;;;8.40;99.90;;;;;;5035273;28;20564;-50
2023/01/12 02:36:58;;;;;;;25.30;7.40;;;8.40;99.90;;;;;;5009839;28;20033;-51
2023/01/12 02:39:41;;;;;;;41.75;7.25;;;7.90;99.90;;;;;;5037271;28;20529;-51
2023/01/12 02:45:20;;;;;;;37.90;7.68;;;8.20;99.90;;;;;;5034732;28;20045;-51
2023/01/12 02:47:56;;;;;;;32.63;7.15;;;8.50;99.90;;;;;;5037410;28;20043;-52
2023/01/12 02:50:43;;;;;;;34.40;8.60;;;8.80;99.90;;;;;;5012134;28;20176;-55
2023/01/12 02:53:16;;;;;;;33.80;8.33;;;8.60;99.90;;;;;;5033305;28;20037;-56
2023/01/12 02:55:43;;;;;;;30.95;7.30;;;8.30;99.90;;;;;;5033047;28;20041;-53
2023/01/12 02:58:11;;;;;;;33.38;7.50;;;;;;;;;;5039257;28;20043;-52
2023/01/12 03:00:47;;;;;;;34.13;7.50;;;8.20;99.90;;;;;;5033569;28;20797;-55
2023/01/12 03:03:12;;;;;;;36.58;9.27;;;7.80;99.90;;;;;;5038408;28;20392;-55
2023/01/12 03:05:41;;;;;;;38.15;8.63;;;8.80;99.90;;;;;;5036141;28;20794;-52
2023/01/12 03:08:16;;;;;;;38.83;7.68;;;8.10;99.90;;;;;;5033840;28;20431;-55
2023/01/12 03:11:11;;;;;;;37.38;7.57;;;8.30;99.90;;;;;;5033536;28;20450;-56
2023/01/12 03:14:08;;;;;;;36.88;9.57;;;8.30;99.90;;;;;;5028395;28;20061;-54
2023/01/12 03:16:35;;;;;;;32.97;8.10;;;8.60;99.90;;;;;;5011217;28;20411;-52
2023/01/12 03:19:13;;;;;;;40.35;9.05;;;8.10;99.90;;;;;;5037211;28;20104;-53
2023/01/12 03:21:57;;;;;;;34.38;9.80;;;8.50;99.90;;;;;;5034242;28;20049;-52
2023/01/12 03:24:44;;;;;;;34.05;9.30;;;8.30;99.90;;;;;;5032903;28;20402;-54
2023/01/12 03:27:21;;;;;;;45.25;10.60;;;8.40;99.90;;;;;;5030741;28;20395;-55
2023/01/12 03:29:58;;;;;;;41.25;10.25;;;8.40;99.90;;;;;;5037076;28;20033;-51
2023/01/12 03:32:24;;;;;;;26.35;7.78;;;8.60;99.90;;;;;;5033027;28;20091;-55
2023/01/12 03:34:51;;;;;;;28.08;8.82;;;8.50;99.90;;;;;;5035941;28;20514;-55
2023/01/12 03:37:40;;;;;;;28.23;8.25;;;8.50;99.90;;;;;;5030664;28;20045;-54
2023/01/12 03:40:20;;;;;;;29.88;7.97;;;8.40;99.90;;;;;;5028776;28;20043;-53
2023/01/12 03:43:02;;;;;;;40.63;8.95;;;8.70;99.90;;;;;;5024890;28;20045;-56
2023/01/12 03:45:35;;;;;;;28.02;8.13;;;8.90;99.90;;;;;;5037939;28;20049;-53
2023/01/12 03:48:26;;;;;;;33.33;7.28;;;8.30;99.90;;;;;;5023910;28;20050;-52
2023/01/12 03:50:59;;;;;;;30.77;6.95;;;8.30;99.90;;;;;;5037308;28;20384;-52
2023/01/12 03:53:25;;;;;;;30.83;6.32;;;;;;;;;;5041627;28;20041;-52
2023/01/12 03:55:56;;;;;;;28.52;6.30;;;8.50;99.90;;;;;;5034192;28;20033;-51
2023/01/12 03:58:23;;;;;;;31.90;6.95;;;8.80;99.90;;;;;;5032704;28;20414;-53
2023/01/12 04:00:50;;;;;;;25.23;5.93;;;8.00;99.90;;;;;;5034666;28;20046;-53
2023/01/12 04:03:17;;;;;;;35.22;7.13;;;8.40;99.90;;;;;;5036831;28;20073;-54
2023/01/12 04:05:44;;;;;;;32.58;6.60;;;8.50;99.90;;;;;;5038689;28;20507;-55
2023/01/12 04:08:13;;;;;;;31.42;6.57;;;8.10;99.90;;;;;;5034810;28;20042;-54
2023/01/12 04:10:39;;;;;;;22.55;5.32;;;8.80;99.90;;;;;;5030345;28;20045;-55
2023/01/12 04:13:05;;;;;;;23.02;4.72;;;8.70;99.90;;;;;;5015641;28;20048;-55
2023/01/12 04:15:36;;;;;;;23.13;5.22;;;7.80;99.90;;;;;;5037990;28;20037;-55
2023/01/12 04:18:03;;;;;;;20.35;5.20;;;8.90;99.90;;;;;;5022539;28;20072;-54
2023/01/12 04:20:29;;;;;;;25.33;6.05;;;8.40;99.90;;;;;;5032958;28;20433;-55
2023/01/12 04:22:55;;;;;;;23.17;4.80;;;8.10;99.90;;;;;;5037105;28;20187;-54
2023/01/12 04:25:21;;;;;;;17.85;4.72;;;8.70;99.90;;;;;;5036142;28;20038;-54
2023/01/12 04:27:56;;;;;;;23.00;5.57;;;8.10;99.90;;;;;;5038874;28;20040;-53
2023/01/12 04:30:25;;;;;;;22.95;6.50;;;7.80;99.90;;;;;;5015994;28;20128;-54
2023/01/12 04:32:55;;;;;;;22.52;4.78;;;8.20;99.90;;;;;;5029465;28;20037;-53
2023/01/12 04:35:23;;;;;;;27.35;5.75;;;8.10;99.90;;;;;;5032978;28;20156;-54
2023/01/12 04:37:49;;;;;;;24.98;4.25;;;7.60;99.90;;;;;;5018643;28;20128;-54
2023/01/12 04:40:16;;;;;;;19.42;4.75;;;8.20;99.90;;;;;;5021161;28;20491;-54
2023/01/12 04:43:09;;;;;;;27.95;6.32;;;8.00;99.90;;;;;;5030710;28;20099;-55
2023/01/12 04:45:42;;;;;;;23.40;5.43;;;8.20;99.90;;;;;;5020741;28;20183;-54
2023/01/12 04:48:10;;;;;;;19.13;5.30;;;8.00;99.90;;;;;;5040358;28;20118;-55
2023/01/12 04:50:37;;;;;;;27.70;4.95;;;;;;;;;;5036897;28;20410;-55
2023/01/12 04:53:04;;;;;;;29.52;6.38;;;7.90;99.90;;;;;;5040027;28;20048;-54
2023/01/12 04:55:34;;;;;;;22.65;4.97;;;8.10;99.90;;;;;;5030237;28;20044;-52
2023/01/12 04:57:59;;;;;;;26.13;4.72;;;8.00;99.90;;;;;;5037862;28;20037;-53
2023/01/12 05:00:25;;;;;;;23.45;4.40;;;7.90;99.90;;;;;;5035049;28;20450;-51
2023/01/12 05:02:58;;;;;;;21.50;4.00;;;8.50;99.90;;;;;;5040036;28;20084;-52
2023/01/12 05:05:24;;;;;;;17.92;4.65;;;8.30;99.90;;;;;;5033815;28;20044;-54
2023/01/12 05:10:35;;;;;;;;;;;8.30;99.90;;;;;;5040986;28;20052;-54
2023/01/12 05:13:00;;;;;;;23.48;5.05;;;7.70;99.90;;;;;;5035875;28;20000;-54
2023/01/12 05:15:26;;;;;;;14.93;5.55;;;7.80;99.90;;;;;;5043117;28;20048;-55
2023/01/12 05:17:55;;;;;;;22.05;4.70;;;8.20;99.90;;;;;;5015484;28;20095;-55
2023/01/12 05:20:21;;;;;;;21.67;4.97;;;8.20;99.90;;;;;;5023780;28;20090;-54
2023/01/12 05:22:51;;;;;;;12.75;4.20;;;8.40;99.90;;;;;;5031372;28;20050;-52
2023/01/12 05:25:17;;;;;;;12.35;3.90;;;8.30;99.90;;;;;;5036088;28;20124;-51
2023/01/12 05:27:43;;;;;;;10.35;3.83;;;8.90;99.90;;;;;;5018522;28;20132;-54
2023/01/12 05:30:12;;;;;;;14.32;4.20;;;8.50;99.90;;;;;;5035776;28;20068;-53
2023/01/12 05:32:40;;;;;;;11.77;4.03;;;8.00;99.90;;;;;;5034205;28;20037;-51
2023/01/12 05:35:07;;;;;;;12.38;3.42;;;8.60;99.90;;;;;;5009761;28;20179;-55
2023/01/12 05:37:33;;;;;;;7.18;2.90;;;8.30;99.90;;;;;;5031635;28;20555;-52
2023/01/12 05:39:58;;;;;;;7.50;2.78;;;8.70;99.90;;;;;;4997931;28;20116;-54
2023/01/12 05:45:12;;;;;;;10.60;3.55;;;8.20;99.90;;;;;;5039963;28;20073;-56
2023/01/12 05:47:37;;;;;;;9.50;3.67;;;8.10;99.90;;;;;;5031423;28;20065;-54
2023/01/12 05:50:04;;;;;;;10.77;2.80;;;8.10;99.90;;;;;;5039031;28;20040;-56
2023/01/12 05:52:30;;;;;;;14.30;4.40;;;8.70;99.90;;;;;;5032268;28;20549;-57
2023/01/12 05:54:55;;;;;;;7.82;2.50;;;8.40;99.90;;;;;;5031707;28;20034;-54
2023/01/12 05:57:21;;;;;;;9.30;2.40;;;8.40;99.90;;;;;;5026696;28;20072;-57
2023/01/12 05:59:47;;;;;;;7.53;2.33;;;8.40;99.90;;;;;;5026690;28;20045;-56
2023/01/12 06:02:16;;;;;;;5.93;2.08;;;8.90;99.90;;;;;;5030372;28;21591;-55
2023/01/12 06:04:42;;;;;;;6.22;2.60;;;8.70;99.90;;;;;;5029868;28;20056;-55
2023/01/12 06:07:12;;;;;;;7.75;2.78;;;;;;;;;;5044968;28;20044;-55
2023/01/12 06:09:38;;;;;;;7.45;2.80;;;8.40;99.90;;;;;;5028549;28;20454;-53
2023/01/12 06:14:49;;;;;;;;;;;8.60;99.90;;;;;;5031265;28;20041;-49
2023/01/12 06:17:14;;;;;;;14.52;5.50;;;8.80;99.90;;;;;;5030617;28;20036;-56
2023/01/12 06:19:40;;;;;;;13.52;4.75;;;9.00;99.90;;;;;;5028898;28;20064;-55
2023/01/12 06:22:07;;;;;;;14.52;4.18;;;;;;;;;;5024034;28;20056;-56
2023/01/12 06:24:32;;;;;;;17.15;4.57;;;9.10;99.90;;;;;;5012004;28;20172;-56
2023/01/12 06:26:59;;;;;;;32.85;6.30;;;9.10;99.90;;;;;;5015437;28;20109;-54
2023/01/12 06:29:28;;;;;;;25.88;5.35;;;9.50;99.90;;;;;;5012874;28;20103;-55
2023/01/12 06:31:53;;;;;;;33.08;8.50;;;10.00;99.90;;;;;;5009843;28;20558;-54
2023/01/12 06:34:19;;;;;;;33.90;7.70;;;9.50;99.90;;;;;;5030920;28;20121;-54
2023/01/12 06:36:45;;;;;;;24.00;6.32;;;10.40;99.90;;;;;;5030637;28;20041;-57
2023/01/12 06:39:11;;;;;;;37.03;7.28;;;9.80;99.90;;;;;;5030366;28;20108;-54
2023/01/12 06:44:24;;;;;;;34.90;7.03;;;10.00;99.90;;;;;;5030834;28;20049;-54
2023/01/12 06:46:50;;;;;;;27.95;5.45;;;;;;;;;;5030287;28;20120;-56
2023/01/12 06:49:16;;;;;;;28.38;6.18;;;9.60;99.90;;;;;;5030291;28;20084;-57
2023/01/12 06:51:42;;;;;;;20.98;5.28;;;9.70;99.90;;;;;;5030467;28;20083;-54
2023/01/12 06:54:11;;;;;;;22.90;5.60;;;10.20;99.90;;;;;;5030334;28;20033;-53
2023/01/12 06:56:39;;;;;;;24.10;5.60;;;10.20;99.90;;;;;;5030607;28;20045;-52
2023/01/12 06:59:05;;;;;;;25.92;5.95;;;10.00;99.90;;;;;;5029851;28;20040;-55
2023/01/12 07:01:41;;;;;;;26.58;7.97;;;10.00;99.90;;;;;;5030472;28;20041;-54
2023/01/12 07:04:09;;;;;;;26.10;5.63;;;9.60;99.90;;;;;;5030374;28;20037;-54
2023/01/12 07:06:35;;;;;;;25.20;5.43;;;10.20;99.90;;;;;;5033424;28;20242;-52
2023/01/12 07:09:01;;;;;;;25.83;4.88;;;10.10;99.90;;;;;;5035329;28;20033;-51
2023/01/12 07:11:27;;;;;;;25.42;6.05;;;9.80;99.90;;;;;;5040813;28;20041;-53
2023/01/12 07:13:54;;;;;;;23.08;5.97;;;;;;;;;;5035061;28;20506;-53
2023/01/12 07:16:21;;;;;;;21.52;4.38;;;10.30;99.90;;;;;;5037111;28;20034;-57
2023/01/12 07:18:47;;;;;;;21.77;4.70;;;10.10;99.90;;;;;;5016873;28;20033;-51
2023/01/12 07:21:17;;;;;;;24.85;4.70;;;9.90;99.90;;;;;;5036674;28;20491;-53
2023/01/12 07:23:43;;;;;;;24.38;5.05;;;10.00;99.90;;;;;;5033619;28;20466;-52
2023/01/12 07:26:10;;;;;;;25.20;5.30;;;10.20;99.90;;;;;;5035855;28;20064;-54
2023/01/12 07:28:36;;;;;;;21.02;5.50;;;10.70;99.90;;;;;;5027904;28;20033;-53
2023/01/12 07:31:04;;;;;;;22.83;5.65;;;9.70;99.90;;;;;;5017084;28;20037;-53
2023/01/12 07:33:31;;;;;;;22.05;5.43;;;10.60;99.90;;;;;;5038803;28;20049;-50
2023/01/12 07:36:01;;;;;;;19.77;5.18;;;9.70;99.90;;;;;;5034093;28;20113;-51
2023/01/12 07:38:30;;;;;;;23.73;5.80;;;9.90;99.90;;;;;;5035978;28;20044;-52
2023/01/12 07:41:02;;;;;;;25.30;5.82;;;10.60;99.90;;;;;;5033424;28;20044;-51
2023/01/12 07:43:29;;;;;;;27.02;6.47;;;10.00;99.90;;;;;;5035656;28;20045;-54
2023/01/12 07:45:56;;;;;;;20.90;5.32;;;10.10;99.90;;;;;;5032604;28;20445;-51
2023/01/12 07:48:23;;;;;;;23.75;6.82;;;9.80;99.90;;;;;;5031699;28;20037;-50
2023/01/12 07:50:49;;;;;;;17.23;4.53;;;10.40;99.90;;;;;;5035915;28;20056;-48
2023/01/12 07:53:15;;;;;;;23.80;5.43;;;10.30;99.90;;;;;;5030772;28;20253;-49
2023/01/12 07:55:42;;;;;;;21.63;5.32;;;10.70;99.90;;;;;;5034728;28;20112;-53
2023/01/12 07:58:08;;;;;;;21.83;4.38;;;10.40;99.90;;;;;;5032003;28;20033;-51
2023/01/12 08:00:34;;;;;;;25.52;5.63;;;10.00;99.90;;;;;;5016287;28;20073;-50
2023/01/12 08:03:12;;;;;;;17.13;4.90;;;;;;;;;;5038143;28;20033;-49
2023/01/12 08:05:38;;;;;;;18.75;4.82;;;10.20;99.90;;;;;;5032130;28;20144;-48
2023/01/12 08:08:05;;;;;;;11.30;3.95;;;10.50;99.90;;;;;;5034172;28;20033;-51
2023/01/12 08:10:31;;;;;;;26.38;4.30;;;10.60;99.90;;;;;;5040767;28;20045;-49
2023/01/12 08:12:57;;;;;;;22.27;5.38;;;10.00;99.90;;;;;;5032595;28;20040;-48
2023/01/12 08:15:24;;;;;;;20.15;5.07;;;10.40;99.90;;;;;;5040389;28;20087;-51
2023/01/12 08:18:17;;;;;;;23.80;4.97;;;10.70;99.90;;;;;;5030646;28;20029;-50
2023/01/12 08:20:43;;;;;;;28.48;5.72;;;10.40;99.90;;;;;;5020766;28;20064;-52
2023/01/12 08:23:12;;;;;;;16.65;5.28;;;10.30;99.90;;;;;;5030700;28;20109;-47
2023/01/12 08:25:43;;;;;;;26.95;6.55;;;10.70;99.90;;;;;;5037306;28;20045;-48
2023/01/12 08:28:15;;;;;;;22.38;6.30;;;10.20;99.90;;;;;;5040404;28;20068;-51
2023/01/12 08:30:43;;;;;;;20.25;5.57;;;10.90;99.90;;;;;;5018617;28;20049;-52
2023/01/12 08:33:09;;;;;;;20.73;5.82;;;10.90;99.90;;;;;;5022694;28;20112;-52
2023/01/12 08:35:36;;;;;;;17.60;4.53;;;10.00;99.90;;;;;;5038367;28;20112;-52
2023/01/12 08:38:01;;;;;;;24.63;4.85;;;10.10;99.90;;;;;;5039067;28;20083;-51
2023/01/12 08:41:31;;;;;;;25.98;6.07;;;10.00;99.90;;;;;;5018933;28;20041;-52
2023/01/12 08:43:13;;;;;;;19.20;5.68;;;10.20;99.90;;;;;;5038444;28;20045;-54
2023/01/12 08:45:38;;;;;;;19.42;4.35;;;10.30;99.90;;;;;;5043295;28;20033;-52
2023/01/12 08:48:07;;;;;;;16.58;5.20;;;;;;;;;;5037355;28;20041;-52
2023/01/12 08:50:33;;;;;;;20.80;4.53;;;10.30;99.90;;;;;;5041267;28;20042;-50
2023/01/12 08:52:58;;;;;;;21.83;5.20;;;9.90;99.90;;;;;;5036715;28;20033;-53
2023/01/12 08:55:24;;;;;;;18.45;5.88;;;10.30;99.90;;;;;;5039130;28;20040;-55
2023/01/12 08:57:50;;;;;;;20.00;4.53;;;10.80;99.90;;;;;;5035612;28;20419;-54
2023/01/12 09:00:16;;;;;;;21.27;4.88;;;10.70;99.90;;;;;;5038275;28;20429;-52
2023/01/12 09:02:42;;;;;;;18.95;5.05;;;10.40;99.90;;;;;;5025223;28;20127;-52
2023/01/12 09:05:08;;;;;;;22.92;5.00;;;10.40;99.90;;;;;;5035528;28;20132;-49
2023/01/12 09:07:33;;;;;;;23.23;5.35;;;10.20;99.90;;;;;;5017219;28;20455;-53
2023/01/12 09:09:59;;;;;;;21.80;4.25;;;10.60;99.90;;;;;;5042065;28;20033;-52
2023/01/12 09:12:26;;;;;;;18.95;5.13;;;10.30;99.90;;;;;;5021108;28;20452;-53
2023/01/12 09:14:52;;;;;;;18.38;4.30;;;10.70;99.90;;;;;;5039514;28;20108;-52
2023/01/12 09:17:21;;;;;;;20.83;5.38;;;10.20;99.90;;;;;;5037924;28;20041;-54
2023/01/12 09:19:49;;;;;;;15.95;3.63;;;11.00;99.90;;;;;;5019248;28;20041;-52
2023/01/12 09:22:15;;;;;;;25.77;4.50;;;10.60;99.90;;;;;;5036857;28;20041;-51
2023/01/12 09:24:40;;;;;;;21.40;4.07;;;10.90;99.90;;;;;;5035172;28;20056;-53
2023/01/12 09:27:06;;;;;;;16.08;3.97;;;10.90;99.90;;;;;;5024501;28;20124;-56
2023/01/12 09:29:32;;;;;;;29.63;7.00;;;10.50;99.90;;;;;;5037104;28;20041;-52
2023/01/12 09:31:57;;;;;;;19.77;4.57;;;10.40;99.90;;;;;;5022068;28;20080;-52
2023/01/12 09:34:23;;;;;;;21.45;6.60;;;10.80;99.90;;;;;;5037407;28;20091;-55
2023/01/12 09:36:52;;;;;;;19.58;4.88;;;10.60;99.90;;;;;;5036616;28;20033;-52
2023/01/12 09:39:17;;;;;;;22.80;4.90;;;11.00;99.90;;;;;;5035008;28;20080;-52
2023/01/12 09:47:53;;;;;;;22.42;4.13;;;10.30;99.90;;;;;;5037867;28;20115;-54
2023/01/12 09:50:25;;;;;;;23.13;4.60;;;10.40;99.90;;;;;;5039372;28;20102;-55
2023/01/12 09:53:18;;;;;;;15.57;3.95;;;10.60;99.90;;;;;;5035929;28;20090;-53
2023/01/12 09:56:02;;;;;;;16.40;4.18;;;10.60;99.90;;;;;;5038556;28;20507;-56
2023/01/12 09:58:34;;;;;;;15.95;4.57;;;10.50;99.90;;;;;;5000201;28;20041;-56
2023/01/12 10:01:06;;;;;;;21.48;5.10;;;10.00;99.90;;;;;;5041126;28;20033;-55
2023/01/12 10:03:37;;;;;;;18.50;5.03;;;10.30;99.90;;;;;;5036493;28;20053;-57
2023/01/12 10:06:04;;;;;;;21.52;5.85;;;9.70;99.90;;;;;;5035497;28;20033;-54
2023/01/12 10:08:41;;;;;;;25.65;6.55;;;10.20;99.90;;;;;;5033241;28;20102;-56
2023/01/12 10:11:12;;;;;;;18.63;4.72;;;10.50;99.90;;;;;;5039635;28;20069;-55
2023/01/12 10:14:00;;;;;;;16.75;3.90;;;10.00;99.90;;;;;;5034171;28;20037;-54
2023/01/12 10:16:59;;;;;;;15.00;3.92;;;10.20;99.90;;;;;;5021805;28;20124;-56
2023/01/12 10:19:42;;;;;;;23.42;5.35;;;10.20;99.90;;;;;;5035229;28;20042;-54
2023/01/12 10:22:38;;;;;;;22.75;5.22;;;10.40;99.90;;;;;;5025916;28;20053;-51
2023/01/12 10:25:12;;;;;;;16.92;4.47;;;10.50;99.90;;;;;;5036637;28;20029;-52
2023/01/12 10:27:43;;;;;;;25.17;4.53;;;10.00;99.90;;;;;;5041013;28;20185;-56
2023/01/12 10:30:16;;;;;;;24.23;6.50;;;10.30;99.90;;;;;;5035378;28;20038;-56
2023/01/12 10:32:44;;;;;;;29.33;5.50;;;10.60;99.90;;;;;;5039775;28;20040;-58
2023/01/12 10:35:18;;;;;;;17.52;5.70;;;10.50;99.90;;;;;;5015985;28;20072;-50
2023/01/12 10:37:55;;;;;;;25.13;6.00;;;10.00;99.90;;;;;;5025223;28;20442;-54
2023/01/12 10:40:27;;;;;;;17.27;4.03;;;10.60;99.90;;;;;;5032996;28;20057;-54
2023/01/12 10:43:30;;;;;;;23.35;5.30;;;10.30;99.90;;;;;;5036306;28;20400;-55
2023/01/12 10:46:07;;;;;;;20.60;5.63;;;10.50;99.90;;;;;;5025390;28;20037;-53
2023/01/12 10:48:33;;;;;;;21.45;5.68;;;10.30;99.90;;;;;;5034516;28;20049;-58
2023/01/12 10:51:05;;;;;;;26.80;5.68;;;10.60;99.90;;;;;;5039178;28;20072;-53
2023/01/12 10:53:41;;;;;;;17.98;3.53;;;10.50;99.90;;;;;;5034511;28;20065;-51
2023/01/12 10:56:35;;;;;;;19.40;4.72;;;10.80;99.90;;;;;;5024995;28;20048;-53
2023/01/12 10:59:13;;;;;;;22.00;5.15;;;11.00;99.90;;;;;;5032184;28;20100;-55
2023/01/12 11:01:44;;;;;;;27.08;5.15;;;10.70;99.90;;;;;;5040421;28;20090;-54
2023/01/12 11:04:26;;;;;;;17.95;4.13;;;10.90;99.90;;;;;;5034776;28;20029;-53
2023/01/12 11:07:14;;;;;;;13.15;3.45;;;10.90;99.90;;;;;;5012185;28;20483;-58
2023/01/12 11:09:41;;;;;;;20.30;4.80;;;10.90;99.90;;;;;;5037348;28;20121;-50
2023/01/12 11:12:29;;;;;;;24.48;6.35;;;11.00;99.90;;;;;;5039111;28;20037;-54
2023/01/12 11:15:09;;;;;;;19.27;4.30;;;10.70;99.90;;;;;;5037828;28;20047;-53
2023/01/12 11:17:35;;;;;;;17.08;5.28;;;;;;;;;;5015750;28;20038;-51
2023/01/12 11:20:13;;;;;;;18.83;5.10;;;10.80;99.90;;;;;;5019243;28;20055;-52
2023/01/12 11:22:47;;;;;;;17.27;4.43;;;11.30;99.90;;;;;;5032801;28;20037;-52
2023/01/12 11:25:20;;;;;;;20.38;5.18;;;10.90;99.90;;;;;;5036776;28;20044;-50
2023/01/12 11:28:21;;;;;;;19.77;4.60;;;11.10;99.90;;;;;;5038916;28;20119;-52
2023/01/12 11:31:14;;;;;;;19.95;4.25;;;11.20;99.90;;;;;;5015806;28;20103;-50
2023/01/12 11:33:45;;;;;;;21.63;5.35;;;10.80;99.90;;;;;;5003630;28;20049;-53
2023/01/12 11:36:38;;;;;;;20.15;4.68;;;11.10;99.90;;;;;;5032755;28;20104;-49
2023/01/12 11:39:07;;;;;;;15.05;3.60;;;11.10;99.90;;;;;;5035933;28;20053;-52
2023/01/12 11:41:35;;;;;;;15.50;4.35;;;;;;;;;;5033311;28;20469;-49
2023/01/12 11:44:09;;;;;;;11.55;2.85;;;11.40;99.90;;;;;;5039704;28;20471;-53
2023/01/12 11:46:47;;;;;;;18.25;3.75;;;10.70;99.90;;;;;;5034605;28;20033;-50
2023/01/12 11:49:24;;;;;;;17.80;3.85;;;11.20;99.90;;;;;;5031238;28;20033;-49
2023/01/12 11:51:55;;;;;;;26.65;5.18;;;11.20;99.90;;;;;;5031805;28;20087;-52
2023/01/12 11:54:22;;;;;;;18.58;4.70;;;11.60;99.90;;;;;;5039164;28;20095;-49
2023/01/12 11:57:09;;;;;;;15.02;4.28;;;11.20;99.90;;;;;;5030973;28;20611;-56
2023/01/12 11:59:38;;;;;;;18.85;3.55;;;10.60;99.90;;;;;;5032492;28;20041;-50
2023/01/12 12:02:31;;;;;;;22.30;5.45;;;11.10;99.90;;;;;;5039726;28;20503;-50
2023/01/12 12:05:12;;;;;;;15.63;2.65;;;11.30;99.90;;;;;;5030183;28;20041;-49
2023/01/12 12:07:55;;;;;;;13.65;3.58;;;11.40;99.90;;;;;;5036230;28;20111;-49
2023/01/12 12:10:24;;;;;;;19.05;5.32;;;10.70;99.90;;;;;;5036593;28;20041;-50
2023/01/12 12:13:21;;;;;;;15.85;4.60;;;11.40;99.90;;;;;;5035110;28;20042;-49
2023/01/12 12:16:11;;;;;;;18.83;3.28;;;11.10;99.90;;;;;;5039689;28;20582;-50
2023/01/12 12:18:38;;;;;;;17.35;3.75;;;;;;;;;;5038052;28;20090;-49
2023/01/12 12:21:22;;;;;;;19.65;5.30;;;10.40;99.90;;;;;;5039967;28;20073;-48
2023/01/12 12:24:26;;;;;;;14.80;3.38;;;11.40;99.90;;;;;;5031873;28;20073;-52
2023/01/12 12:26:57;;;;;;;27.23;5.78;;;10.60;99.90;;;;;;5039220;28;20111;-54
2023/01/12 12:29:56;;;;;;;17.45;4.50;;;10.50;99.90;;;;;;5038975;28;20041;-50
2023/01/12 12:32:38;;;;;;;19.27;3.75;;;10.80;99.90;;;;;;5035666;28;20055;-53
2023/01/12 12:35:19;;;;;;;20.20;4.00;;;10.50;99.90;;;;;;5034928;28;20037;-53
2023/01/12 12:38:18;;;;;;;16.88;4.13;;;10.60;99.90;;;;;;5039831;28;20108;-55
2023/01/12 12:47:26;;;;;;;19.70;5.43;;;10.40;99.90;;;;;;5025461;28;20048;-51
2023/01/12 12:49:54;;;;;;;;;;;10.70;99.90;;;;;;5040573;28;20112;-49
2023/01/12 12:52:21;;;;;;;26.20;5.32;;;10.80;99.90;;;;;;5036989;28;19925;-49
2023/01/12 12:54:47;;;;;;;20.63;4.05;;;11.00;99.90;;;;;;5039810;28;20094;-50
2023/01/12 12:57:14;;;;;;;21.73;4.40;;;10.70;99.90;;;;;;5034091;28;20034;-53
2023/01/12 12:59:39;;;;;;;26.90;4.70;;;11.10;99.90;;;;;;5039463;28;20090;-51
2023/01/12 13:02:37;;;;;;;28.15;6.70;;;10.90;99.90;;;;;;5040312;28;20045;-54
2023/01/12 13:05:05;;;;;;;22.48;6.53;;;10.60;99.90;;;;;;5029807;28;20060;-52
2023/01/12 13:07:34;;;;;;;22.17;4.35;;;10.80;99.90;;;;;;5034961;28;20041;-52
2023/01/12 13:10:16;;;;;;;19.75;4.10;;;10.40;99.90;;;;;;5042100;28;20037;-51
2023/01/12 13:12:42;;;;;;;18.83;4.38;;;10.50;99.90;;;;;;5035324;28;20042;-49
2023/01/12 13:15:18;;;;;;;17.77;4.88;;;11.40;99.90;;;;;;5041175;28;20564;-49
2023/01/12 13:17:45;;;;;;;17.17;4.18;;;11.00;99.90;;;;;;5034414;28;20094;-49
2023/01/12 13:20:11;;;;;;;18.20;3.85;;;10.80;99.90;;;;;;5040240;28;20093;-50
2023/01/12 13:22:45;;;;;;;13.45;3.00;;;10.60;99.90;;;;;;5034840;28;20037;-54
2023/01/12 13:25:19;;;;;;;21.38;3.55;;;10.80;99.90;;;;;;5020608;28;20056;-51
2023/01/12 13:27:59;;;;;;;23.48;6.00;;;11.40;99.90;;;;;;5043198;28;20351;-49
2023/01/12 13:30:25;;;;;;;24.08;5.53;;;11.30;99.90;;;;;;5037357;28;20075;-51
2023/01/12 13:32:53;;;;;;;18.75;3.97;;;11.30;99.90;;;;;;5037731;28;20387;-51
2023/01/12 13:35:39;;;;;;;18.35;4.75;;;;;;;;;;5042891;28;20084;-49
2023/01/12 13:38:20;;;;;;;17.55;5.43;;;11.10;99.90;;;;;;5034438;28;20048;-51
2023/01/12 13:40:46;;;;;;;22.83;5.18;;;10.80;99.90;;;;;;5021825;28;20365;-52
2023/01/12 13:43:31;;;;;;;21.70;5.32;;;11.30;99.90;;;;;;5031862;28;20288;-50
2023/01/12 13:46:02;;;;;;;;;;;10.50;99.90;;;;;;5042210;28;20033;-49